sensor_id;sensor_type;location;lat;lon;timestamp;P1;durP1;ratioP1;P2;durP2;ratioP2
16994;SDS011;8614;48.522;9.206;2022-11-11T03:01:09;18.43;;;16.60;;
16994;SDS011;8614;48.522;9.206;2022-11-11T03:03:54;18.73;;;17.03;;
16994;SDS011;8614;48.522;9.206;2022-11-11T03:06:40;17.77;;;16.43;;
16994;SDS011;8614;48.522;9.206;2022-11-11T03:09:25;18.60;;;17.00;;
16994;SDS011;8614;48.522;9.206;2022-11-11T03:12:11;18.10;;;16.30;;
16994;SDS011;8614;48.522;9.206;2022-11-11T03:14:56;16.27;;;14.97;;
16994;SDS011;8614;48.522;9.206;2022-11-11T03:17:43;16.83;;;15.43;;
16994;SDS011;8614;48.522;9.206;2022-11-11T03:20:28;15.80;;;14.50;;
16994;SDS011;8614;48.522;9.206;2022-11-11T03:23:34;17.00;;;15.60;;
16994;SDS011;8614;48.522;9.206;2022-11-11T03:26:20;18.23;;;16.70;;
16994;SDS011;8614;48.522;9.206;2022-11-11T03:29:05;17.53;;;16.13;;
16994;SDS011;8614;48.522;9.206;2022-11-11T03:31:51;16.50;;;15.30;;
16994;SDS011;8614;48.522;9.206;2022-11-11T03:34:38;16.43;;;15.10;;
16994;SDS011;8614;48.522;9.206;2022-11-11T03:37:24;15.57;;;14.47;;
16994;SDS011;8614;48.522;9.206;2022-11-11T03:40:27;15.90;;;14.63;;
16994;SDS011;8614;48.522;9.206;2022-11-11T03:43:13;17.10;;;15.70;;
16994;SDS011;8614;48.522;9.206;2022-11-11T03:46:00;17.13;;;15.80;;
16994;SDS011;8614;48.522;9.206;2022-11-11T03:48:47;17.90;;;16.40;;
16994;SDS011;8614;48.522;9.206;2022-11-11T03:51:33;15.63;;;14.43;;
16994;SDS011;8614;48.522;9.206;2022-11-11T03:54:19;15.87;;;14.67;;
16994;SDS011;8614;48.522;9.206;2022-11-11T03:57:05;16.67;;;15.30;;
16994;SDS011;8614;48.522;9.206;2022-11-11T04:00:09;19.40;;;17.80;;
16994;SDS011;8614;48.522;9.206;2022-11-11T04:03:00;17.93;;;16.43;;
16994;SDS011;8614;48.522;9.206;2022-11-11T04:06:09;18.27;;;16.77;;
16994;SDS011;8614;48.522;9.206;2022-11-11T04:09:14;16.97;;;15.70;;
16994;SDS011;8614;48.522;9.206;2022-11-11T04:12:17;15.33;;;14.10;;
16994;SDS011;8614;48.522;9.206;2022-11-11T04:15:03;14.63;;;13.63;;
16994;SDS011;8614;48.522;9.206;2022-11-11T04:18:06;15.50;;;14.20;;
16994;SDS011;8614;48.522;9.206;2022-11-11T04:20:52;15.23;;;14.23;;
16994;SDS011;8614;48.522;9.206;2022-11-11T04:23:55;14.77;;;13.77;;
16994;SDS011;8614;48.522;9.206;2022-11-11T04:26:42;16.43;;;15.23;;
16994;SDS011;8614;48.522;9.206;2022-11-11T04:33:15;15.60;;;14.50;;
16994;SDS011;8614;48.522;9.206;2022-11-11T04:36:30;15.87;;;14.57;;
16994;SDS011;8614;48.522;9.206;2022-11-11T04:39:24;16.27;;;14.93;;
16994;SDS011;8614;48.522;9.206;2022-11-11T04:42:29;16.50;;;15.30;;
16994;SDS011;8614;48.522;9.206;2022-11-11T04:45:15;19.17;;;17.57;;
16994;SDS011;8614;48.522;9.206;2022-11-11T04:48:13;16.87;;;15.67;;
16994;SDS011;8614;48.522;9.206;2022-11-11T04:51:00;17.20;;;15.90;;
16994;SDS011;8614;48.522;9.206;2022-11-11T04:53:46;17.37;;;15.87;;
16994;SDS011;8614;48.522;9.206;2022-11-11T04:56:31;16.73;;;15.43;;
16994;SDS011;8614;48.522;9.206;2022-11-11T04:59:34;17.73;;;16.33;;
16994;SDS011;8614;48.522;9.206;2022-11-11T05:02:19;18.50;;;17.03;;
16994;SDS011;8614;48.522;9.206;2022-11-11T05:05:22;18.17;;;16.80;;
16994;SDS011;8614;48.522;9.206;2022-11-11T05:08:09;16.97;;;15.77;;
16994;SDS011;8614;48.522;9.206;2022-11-11T05:11:12;19.20;;;17.80;;
16994;SDS011;8614;48.522;9.206;2022-11-11T05:13:58;19.03;;;17.63;;
16994;SDS011;8614;48.522;9.206;2022-11-11T05:17:04;19.40;;;18.00;;
16994;SDS011;8614;48.522;9.206;2022-11-11T05:20:08;19.10;;;17.70;;
16994;SDS011;8614;48.522;9.206;2022-11-11T05:23:12;17.77;;;16.57;;
16994;SDS011;8614;48.522;9.206;2022-11-11T05:25:58;18.50;;;17.27;;
16994;SDS011;8614;48.522;9.206;2022-11-11T05:28:43;19.63;;;18.27;;
16994;SDS011;8614;48.522;9.206;2022-11-11T05:31:30;18.07;;;16.87;;
16994;SDS011;8614;48.522;9.206;2022-11-11T05:34:17;17.40;;;16.30;;
16994;SDS011;8614;48.522;9.206;2022-11-11T05:37:02;17.73;;;16.57;;
16994;SDS011;8614;48.522;9.206;2022-11-11T05:39:48;17.90;;;16.70;;
16994;SDS011;8614;48.522;9.206;2022-11-11T05:42:33;17.57;;;16.37;;
16994;SDS011;8614;48.522;9.206;2022-11-11T05:45:24;17.30;;;16.20;;
16994;SDS011;8614;48.522;9.206;2022-11-11T05:48:10;18.00;;;16.60;;
16994;SDS011;8614;48.522;9.206;2022-11-11T05:50:58;17.20;;;16.10;;
16994;SDS011;8614;48.522;9.206;2022-11-11T05:53:44;18.10;;;16.77;;
16994;SDS011;8614;48.522;9.206;2022-11-11T05:56:29;17.73;;;16.53;;
16994;SDS011;8614;48.522;9.206;2022-11-11T05:59:15;18.93;;;17.17;;
16994;SDS011;8614;48.522;9.206;2022-11-11T06:02:00;18.60;;;17.40;;
16994;SDS011;8614;48.522;9.206;2022-11-11T06:04:46;19.00;;;17.70;;
16994;SDS011;8614;48.522;9.206;2022-11-11T06:07:34;19.93;;;18.47;;
16994;SDS011;8614;48.522;9.206;2022-11-11T06:10:22;19.67;;;18.30;;
16994;SDS011;8614;48.522;9.206;2022-11-11T06:13:16;20.20;;;18.70;;
16994;SDS011;8614;48.522;9.206;2022-11-11T06:16:02;20.40;;;18.83;;
16994;SDS011;8614;48.522;9.206;2022-11-11T06:18:48;21.37;;;19.77;;
16994;SDS011;8614;48.522;9.206;2022-11-11T06:21:34;20.53;;;19.13;;
16994;SDS011;8614;48.522;9.206;2022-11-11T06:24:35;21.57;;;19.83;;
16994;SDS011;8614;48.522;9.206;2022-11-11T06:27:20;22.47;;;20.40;;
16994;SDS011;8614;48.522;9.206;2022-11-11T06:30:06;21.73;;;20.13;;
16994;SDS011;8614;48.522;9.206;2022-11-11T06:32:53;21.00;;;19.47;;
16994;SDS011;8614;48.522;9.206;2022-11-11T06:35:39;20.83;;;19.33;;
16994;SDS011;8614;48.522;9.206;2022-11-11T06:38:28;21.27;;;19.63;;
16994;SDS011;8614;48.522;9.206;2022-11-11T06:41:15;22.47;;;20.77;;
16994;SDS011;8614;48.522;9.206;2022-11-11T06:44:00;21.87;;;20.00;;
16994;SDS011;8614;48.522;9.206;2022-11-11T06:46:46;20.97;;;19.47;;
16994;SDS011;8614;48.522;9.206;2022-11-11T06:49:31;21.27;;;19.73;;
16994;SDS011;8614;48.522;9.206;2022-11-11T06:52:17;20.43;;;18.83;;
16994;SDS011;8614;48.522;9.206;2022-11-11T06:55:03;20.40;;;19.00;;
16994;SDS011;8614;48.522;9.206;2022-11-11T06:57:50;19.47;;;18.07;;
16994;SDS011;8614;48.522;9.206;2022-11-11T07:00:36;20.00;;;18.50;;
16994;SDS011;8614;48.522;9.206;2022-11-11T07:03:22;19.03;;;17.73;;
16994;SDS011;8614;48.522;9.206;2022-11-11T07:06:07;19.77;;;18.17;;
16994;SDS011;8614;48.522;9.206;2022-11-11T07:08:53;19.93;;;18.43;;
16994;SDS011;8614;48.522;9.206;2022-11-11T07:11:38;19.53;;;18.00;;
16994;SDS011;8614;48.522;9.206;2022-11-11T07:14:25;19.80;;;18.40;;
16994;SDS011;8614;48.522;9.206;2022-11-11T07:17:11;31.33;;;27.23;;
16994;SDS011;8614;48.522;9.206;2022-11-11T07:19:56;48.20;;;36.67;;
16994;SDS011;8614;48.522;9.206;2022-11-11T07:22:42;31.47;;;27.67;;
16994;SDS011;8614;48.522;9.206;2022-11-11T07:25:27;24.03;;;21.83;;
16994;SDS011;8614;48.522;9.206;2022-11-11T07:28:13;22.37;;;20.30;;
16994;SDS011;8614;48.522;9.206;2022-11-11T07:31:00;22.20;;;20.23;;
16994;SDS011;8614;48.522;9.206;2022-11-11T07:33:45;19.70;;;18.20;;
16994;SDS011;8614;48.522;9.206;2022-11-11T07:36:31;19.53;;;18.03;;
16994;SDS011;8614;48.522;9.206;2022-11-11T07:39:17;19.10;;;17.60;;
16994;SDS011;8614;48.522;9.206;2022-11-11T07:42:02;18.17;;;16.90;;
16994;SDS011;8614;48.522;9.206;2022-11-11T07:44:48;18.57;;;17.27;;
16994;SDS011;8614;48.522;9.206;2022-11-11T07:47:35;18.27;;;17.07;;
16994;SDS011;8614;48.522;9.206;2022-11-11T07:50:21;19.30;;;17.50;;
16994;SDS011;8614;48.522;9.206;2022-11-11T07:53:06;18.43;;;17.03;;
16994;SDS011;8614;48.522;9.206;2022-11-11T07:55:52;17.57;;;16.37;;
16994;SDS011;8614;48.522;9.206;2022-11-11T07:58:38;18.50;;;16.87;;
16994;SDS011;8614;48.522;9.206;2022-11-11T08:01:23;17.30;;;16.20;;
16994;SDS011;8614;48.522;9.206;2022-11-11T08:04:10;17.57;;;16.27;;
16994;SDS011;8614;48.522;9.206;2022-11-11T08:06:56;14.20;;;13.10;;
16994;SDS011;8614;48.522;9.206;2022-11-11T08:09:43;13.77;;;12.80;;
16994;SDS011;8614;48.522;9.206;2022-11-11T08:12:28;17.03;;;15.83;;
16994;SDS011;8614;48.522;9.206;2022-11-11T08:15:31;16.00;;;14.83;;
16994;SDS011;8614;48.522;9.206;2022-11-11T08:18:17;15.63;;;14.63;;
16994;SDS011;8614;48.522;9.206;2022-11-11T08:21:04;17.20;;;15.80;;
16994;SDS011;8614;48.522;9.206;2022-11-11T08:23:50;15.00;;;14.10;;
16994;SDS011;8614;48.522;9.206;2022-11-11T08:26:35;13.27;;;12.07;;
16994;SDS011;8614;48.522;9.206;2022-11-11T08:29:20;10.40;;;9.60;;
16994;SDS011;8614;48.522;9.206;2022-11-11T08:32:06;11.13;;;10.23;;
16994;SDS011;8614;48.522;9.206;2022-11-11T08:34:52;10.77;;;9.87;;
16994;SDS011;8614;48.522;9.206;2022-11-11T08:37:39;14.07;;;13.07;;
16994;SDS011;8614;48.522;9.206;2022-11-11T08:40:25;14.27;;;13.20;;
16994;SDS011;8614;48.522;9.206;2022-11-11T08:43:10;12.53;;;11.70;;
16994;SDS011;8614;48.522;9.206;2022-11-11T08:45:55;12.07;;;11.10;;
16994;SDS011;8614;48.522;9.206;2022-11-11T08:48:41;14.57;;;13.57;;
16994;SDS011;8614;48.522;9.206;2022-11-11T08:51:27;10.57;;;5.60;;
16994;SDS011;8614;48.522;9.206;2022-11-11T08:54:14;12.77;;;11.87;;
16994;SDS011;8614;48.522;9.206;2022-11-11T08:56:59;14.40;;;13.43;;
16994;SDS011;8614;48.522;9.206;2022-11-11T08:59:45;14.33;;;13.40;;
16994;SDS011;8614;48.522;9.206;2022-11-11T09:02:31;13.67;;;12.77;;
16994;SDS011;8614;48.522;9.206;2022-11-11T09:05:16;13.93;;;13.03;;
16994;SDS011;8614;48.522;9.206;2022-11-11T09:08:02;13.73;;;12.90;;
16994;SDS011;8614;48.522;9.206;2022-11-11T09:10:51;14.60;;;13.60;;
16994;SDS011;8614;48.522;9.206;2022-11-11T09:13:37;13.87;;;12.97;;
16994;SDS011;8614;48.522;9.206;2022-11-11T09:16:23;14.27;;;13.27;;
16994;SDS011;8614;48.522;9.206;2022-11-11T09:19:08;14.73;;;13.83;;
16994;SDS011;8614;48.522;9.206;2022-11-11T09:21:53;10.27;;;9.47;;
16994;SDS011;8614;48.522;9.206;2022-11-11T09:24:39;11.63;;;10.40;;
16994;SDS011;8614;48.522;9.206;2022-11-11T09:27:26;11.90;;;11.07;;
16994;SDS011;8614;48.522;9.206;2022-11-11T09:30:11;8.63;;;7.93;;
16994;SDS011;8614;48.522;9.206;2022-11-11T09:33:00;8.90;;;8.00;;
16994;SDS011;8614;48.522;9.206;2022-11-11T09:35:46;5.27;;;4.77;;
16994;SDS011;8614;48.522;9.206;2022-11-11T09:38:31;6.43;;;5.83;;
16994;SDS011;8614;48.522;9.206;2022-11-11T09:41:17;6.40;;;5.77;;
16994;SDS011;8614;48.522;9.206;2022-11-11T09:44:10;5.10;;;4.70;;
16994;SDS011;8614;48.522;9.206;2022-11-11T09:47:07;13.10;;;12.30;;
16994;SDS011;8614;48.522;9.206;2022-11-11T09:49:58;13.60;;;12.50;;
16994;SDS011;8614;48.522;9.206;2022-11-11T09:52:46;13.03;;;12.13;;
16994;SDS011;8614;48.522;9.206;2022-11-11T09:55:38;12.90;;;12.10;;
16994;SDS011;8614;48.522;9.206;2022-11-11T09:58:28;13.40;;;12.50;;
16994;SDS011;8614;48.522;9.206;2022-11-11T10:01:20;12.77;;;11.97;;
16994;SDS011;8614;48.522;9.206;2022-11-11T10:04:16;12.87;;;12.07;;
16994;SDS011;8614;48.522;9.206;2022-11-11T10:07:11;12.97;;;12.17;;
16994;SDS011;8614;48.522;9.206;2022-11-11T10:10:07;5.93;;;5.37;;
16994;SDS011;8614;48.522;9.206;2022-11-11T10:12:56;10.37;;;9.57;;
16994;SDS011;8614;48.522;9.206;2022-11-11T10:15:45;8.27;;;7.67;;
16994;SDS011;8614;48.522;9.206;2022-11-11T10:18:45;4.87;;;4.40;;
16994;SDS011;8614;48.522;9.206;2022-11-11T10:21:40;13.27;;;12.47;;
16994;SDS011;8614;48.522;9.206;2022-11-11T10:24:31;14.83;;;13.83;;
16994;SDS011;8614;48.522;9.206;2022-11-11T10:27:18;13.43;;;12.57;;
16994;SDS011;8614;48.522;9.206;2022-11-11T10:30:13;14.00;;;13.20;;
16994;SDS011;8614;48.522;9.206;2022-11-11T10:33:03;13.80;;;12.73;;
16994;SDS011;8614;48.522;9.206;2022-11-11T10:35:54;13.60;;;12.60;;
16994;SDS011;8614;48.522;9.206;2022-11-11T10:38:46;13.13;;;12.33;;
16994;SDS011;8614;48.522;9.206;2022-11-11T10:41:37;13.90;;;13.00;;
16994;SDS011;8614;48.522;9.206;2022-11-11T10:44:27;14.20;;;13.20;;
16994;SDS011;8614;48.522;9.206;2022-11-11T10:47:18;14.10;;;13.20;;
16994;SDS011;8614;48.522;9.206;2022-11-11T10:50:12;14.20;;;13.30;;
16994;SDS011;8614;48.522;9.206;2022-11-11T10:53:05;14.60;;;13.70;;
16994;SDS011;8614;48.522;9.206;2022-11-11T10:55:58;13.60;;;12.70;;
16994;SDS011;8614;48.522;9.206;2022-11-11T10:58:48;13.53;;;12.63;;
16994;SDS011;8614;48.522;9.206;2022-11-11T11:01:40;12.80;;;11.90;;
16994;SDS011;8614;48.522;9.206;2022-11-11T11:04:34;12.60;;;11.80;;
16994;SDS011;8614;48.522;9.206;2022-11-11T11:07:25;12.57;;;11.77;;
16994;SDS011;8614;48.522;9.206;2022-11-11T11:10:20;12.53;;;11.67;;
16994;SDS011;8614;48.522;9.206;2022-11-11T11:13:10;12.93;;;12.07;;
16994;SDS011;8614;48.522;9.206;2022-11-11T11:16:02;12.77;;;11.97;;
16994;SDS011;8614;48.522;9.206;2022-11-11T11:22:00;12.00;;;11.10;;
16994;SDS011;8614;48.522;9.206;2022-11-11T11:24:47;12.37;;;11.47;;
16994;SDS011;8614;48.522;9.206;2022-11-11T11:27:34;12.07;;;11.37;;
16994;SDS011;8614;48.522;9.206;2022-11-11T11:30:20;12.20;;;11.30;;
16994;SDS011;8614;48.522;9.206;2022-11-11T11:33:07;12.00;;;11.30;;
16994;SDS011;8614;48.522;9.206;2022-11-11T11:35:53;12.20;;;11.50;;
16994;SDS011;8614;48.522;9.206;2022-11-11T11:38:40;12.50;;;11.70;;
16994;SDS011;8614;48.522;9.206;2022-11-11T11:41:39;12.57;;;11.67;;
16994;SDS011;8614;48.522;9.206;2022-11-11T11:44:27;12.77;;;11.87;;
16994;SDS011;8614;48.522;9.206;2022-11-11T11:47:18;12.20;;;11.40;;
16994;SDS011;8614;48.522;9.206;2022-11-11T11:50:23;12.37;;;11.47;;
16994;SDS011;8614;48.522;9.206;2022-11-11T11:53:30;11.90;;;11.20;;
16994;SDS011;8614;48.522;9.206;2022-11-11T11:56:24;12.57;;;11.77;;
16994;SDS011;8614;48.522;9.206;2022-11-11T11:59:19;12.70;;;11.80;;
16994;SDS011;8614;48.522;9.206;2022-11-11T12:05:29;12.13;;;11.43;;
16994;SDS011;8614;48.522;9.206;2022-11-11T12:08:25;11.67;;;10.97;;
16994;SDS011;8614;48.522;9.206;2022-11-11T12:11:23;11.60;;;10.90;;
16994;SDS011;8614;48.522;9.206;2022-11-11T12:14:32;11.63;;;10.93;;
16994;SDS011;8614;48.522;9.206;2022-11-11T12:17:45;11.60;;;10.90;;
16994;SDS011;8614;48.522;9.206;2022-11-11T12:20:39;11.87;;;11.17;;
16994;SDS011;8614;48.522;9.206;2022-11-11T12:23:37;11.60;;;11.00;;
16994;SDS011;8614;48.522;9.206;2022-11-11T12:26:34;12.10;;;11.37;;
16994;SDS011;8614;48.522;9.206;2022-11-11T12:29:27;11.90;;;11.20;;
16994;SDS011;8614;48.522;9.206;2022-11-11T12:32:29;11.30;;;10.60;;
16994;SDS011;8614;48.522;9.206;2022-11-11T12:35:32;11.00;;;10.20;;
16994;SDS011;8614;48.522;9.206;2022-11-11T12:38:33;10.70;;;10.10;;
16994;SDS011;8614;48.522;9.206;2022-11-11T12:41:38;11.10;;;10.50;;
16994;SDS011;8614;48.522;9.206;2022-11-11T12:44:36;12.00;;;11.30;;
16994;SDS011;8614;48.522;9.206;2022-11-11T12:47:34;11.90;;;11.20;;
16994;SDS011;8614;48.522;9.206;2022-11-11T12:50:24;12.13;;;11.43;;
16994;SDS011;8614;48.522;9.206;2022-11-11T12:53:21;10.53;;;9.93;;
16994;SDS011;8614;48.522;9.206;2022-11-11T12:56:19;11.60;;;10.90;;
16994;SDS011;8614;48.522;9.206;2022-11-11T12:59:14;12.13;;;11.10;;
16994;SDS011;8614;48.522;9.206;2022-11-11T13:02:13;11.13;;;10.33;;
16994;SDS011;8614;48.522;9.206;2022-11-11T13:05:12;13.33;;;12.53;;
16994;SDS011;8614;48.522;9.206;2022-11-11T13:08:09;12.33;;;11.53;;
16994;SDS011;8614;48.522;9.206;2022-11-11T13:11:22;12.20;;;11.20;;
16994;SDS011;8614;48.522;9.206;2022-11-11T13:14:20;13.00;;;12.10;;
16994;SDS011;8614;48.522;9.206;2022-11-11T13:17:18;13.23;;;12.30;;
16994;SDS011;8614;48.522;9.206;2022-11-11T13:20:05;13.43;;;12.40;;
16994;SDS011;8614;48.522;9.206;2022-11-11T13:23:02;12.80;;;11.90;;
16994;SDS011;8614;48.522;9.206;2022-11-11T13:25:53;13.10;;;12.20;;
16994;SDS011;8614;48.522;9.206;2022-11-11T13:28:44;13.07;;;12.17;;
16994;SDS011;8614;48.522;9.206;2022-11-11T13:31:33;12.50;;;11.77;;
16994;SDS011;8614;48.522;9.206;2022-11-11T13:34:20;12.60;;;11.80;;
16994;SDS011;8614;48.522;9.206;2022-11-11T13:37:07;12.07;;;11.27;;
16994;SDS011;8614;48.522;9.206;2022-11-11T13:40:03;11.50;;;10.80;;
16994;SDS011;8614;48.522;9.206;2022-11-11T13:42:59;12.03;;;11.30;;
16994;SDS011;8614;48.522;9.206;2022-11-11T13:45:50;12.33;;;11.53;;
16994;SDS011;8614;48.522;9.206;2022-11-11T13:48:37;12.50;;;11.70;;
16994;SDS011;8614;48.522;9.206;2022-11-11T13:51:33;12.47;;;11.67;;
16994;SDS011;8614;48.522;9.206;2022-11-11T13:54:23;12.80;;;11.90;;
16994;SDS011;8614;48.522;9.206;2022-11-11T13:57:16;11.97;;;11.23;;
16994;SDS011;8614;48.522;9.206;2022-11-11T14:00:04;12.27;;;11.57;;
16994;SDS011;8614;48.522;9.206;2022-11-11T14:12:40;12.43;;;11.67;;
16994;SDS011;8614;48.522;9.206;2022-11-11T14:15:33;12.37;;;11.57;;
16994;SDS011;8614;48.522;9.206;2022-11-11T14:18:32;13.60;;;12.60;;
16994;SDS011;8614;48.522;9.206;2022-11-11T14:21:45;13.37;;;12.47;;
16994;SDS011;8614;48.522;9.206;2022-11-11T14:24:34;13.00;;;12.20;;
16994;SDS011;8614;48.522;9.206;2022-11-11T14:27:22;13.00;;;12.20;;
16994;SDS011;8614;48.522;9.206;2022-11-11T14:30:11;13.30;;;12.43;;
16994;SDS011;8614;48.522;9.206;2022-11-11T14:33:44;13.30;;;12.40;;
16994;SDS011;8614;48.522;9.206;2022-11-11T14:36:37;13.20;;;12.30;;
16994;SDS011;8614;48.522;9.206;2022-11-11T14:39:29;13.37;;;12.43;;
16994;SDS011;8614;48.522;9.206;2022-11-11T14:48:50;13.73;;;12.63;;
16994;SDS011;8614;48.522;9.206;2022-11-11T14:51:45;13.90;;;12.90;;
16994;SDS011;8614;48.522;9.206;2022-11-11T14:54:49;12.70;;;11.90;;
16994;SDS011;8614;48.522;9.206;2022-11-11T14:57:41;12.77;;;11.97;;
16994;SDS011;8614;48.522;9.206;2022-11-11T15:00:30;12.80;;;12.00;;
16994;SDS011;8614;48.522;9.206;2022-11-11T15:03:28;12.70;;;11.90;;
16994;SDS011;8614;48.522;9.206;2022-11-11T15:06:21;12.83;;;12.00;;
16994;SDS011;8614;48.522;9.206;2022-11-11T15:09:11;11.90;;;11.20;;
16994;SDS011;8614;48.522;9.206;2022-11-11T15:12:17;11.80;;;11.00;;
16994;SDS011;8614;48.522;9.206;2022-11-11T15:15:13;12.30;;;11.40;;
16994;SDS011;8614;48.522;9.206;2022-11-11T15:18:07;12.37;;;11.57;;
16994;SDS011;8614;48.522;9.206;2022-11-11T15:21:03;12.50;;;11.70;;
16994;SDS011;8614;48.522;9.206;2022-11-11T15:23:59;12.37;;;11.67;;
16994;SDS011;8614;48.522;9.206;2022-11-11T15:26:57;12.43;;;11.63;;
16994;SDS011;8614;48.522;9.206;2022-11-11T15:30:02;12.40;;;11.60;;
16994;SDS011;8614;48.522;9.206;2022-11-11T15:32:59;12.80;;;11.90;;
16994;SDS011;8614;48.522;9.206;2022-11-11T15:35:50;12.33;;;11.53;;
16994;SDS011;8614;48.522;9.206;2022-11-11T15:38:41;12.50;;;11.70;;
16994;SDS011;8614;48.522;9.206;2022-11-11T15:41:30;13.00;;;12.20;;
16994;SDS011;8614;48.522;9.206;2022-11-11T15:44:20;12.80;;;12.00;;
16994;SDS011;8614;48.522;9.206;2022-11-11T15:47:11;12.70;;;11.90;;
16994;SDS011;8614;48.522;9.206;2022-11-11T15:49:58;13.90;;;12.80;;
16994;SDS011;8614;48.522;9.206;2022-11-11T15:52:43;13.83;;;12.93;;
16994;SDS011;8614;48.522;9.206;2022-11-11T15:55:31;13.50;;;12.57;;
16994;SDS011;8614;48.522;9.206;2022-11-11T15:58:25;13.53;;;12.63;;
16994;SDS011;8614;48.522;9.206;2022-11-11T16:01:12;14.17;;;13.27;;
16994;SDS011;8614;48.522;9.206;2022-11-11T16:03:57;15.30;;;14.20;;
16994;SDS011;8614;48.522;9.206;2022-11-11T16:06:43;15.33;;;14.33;;
16994;SDS011;8614;48.522;9.206;2022-11-11T16:09:29;15.47;;;14.47;;
16994;SDS011;8614;48.522;9.206;2022-11-11T16:12:17;14.30;;;13.40;;
16994;SDS011;8614;48.522;9.206;2022-11-11T16:15:08;14.73;;;13.73;;
16994;SDS011;8614;48.522;9.206;2022-11-11T16:17:55;15.00;;;13.90;;
16994;SDS011;8614;48.522;9.206;2022-11-11T16:20:46;14.80;;;13.77;;
16994;SDS011;8614;48.522;9.206;2022-11-11T16:23:34;13.90;;;12.90;;
16994;SDS011;8614;48.522;9.206;2022-11-11T16:26:21;14.67;;;13.57;;
16994;SDS011;8614;48.522;9.206;2022-11-11T16:29:12;14.70;;;13.60;;
16994;SDS011;8614;48.522;9.206;2022-11-11T16:32:00;15.00;;;13.80;;
16994;SDS011;8614;48.522;9.206;2022-11-11T16:34:47;15.30;;;14.20;;
16994;SDS011;8614;48.522;9.206;2022-11-11T16:40:39;15.43;;;14.33;;
16994;SDS011;8614;48.522;9.206;2022-11-11T16:43:27;14.80;;;13.73;;
16994;SDS011;8614;48.522;9.206;2022-11-11T16:46:15;15.03;;;13.93;;
16994;SDS011;8614;48.522;9.206;2022-11-11T16:49:23;15.23;;;14.00;;
16994;SDS011;8614;48.522;9.206;2022-11-11T16:52:11;15.37;;;14.07;;
16994;SDS011;8614;48.522;9.206;2022-11-11T16:55:00;15.57;;;14.37;;
16994;SDS011;8614;48.522;9.206;2022-11-11T16:57:46;16.30;;;15.00;;
16994;SDS011;8614;48.522;9.206;2022-11-11T17:00:32;16.50;;;15.30;;
16994;SDS011;8614;48.522;9.206;2022-11-11T17:03:18;17.77;;;16.37;;
16994;SDS011;8614;48.522;9.206;2022-11-11T17:06:08;18.87;;;17.33;;
16994;SDS011;8614;48.522;9.206;2022-11-11T17:08:53;18.63;;;17.23;;
16994;SDS011;8614;48.522;9.206;2022-11-11T17:11:42;18.03;;;16.60;;
16994;SDS011;8614;48.522;9.206;2022-11-11T17:14:29;18.97;;;17.50;;
16994;SDS011;8614;48.522;9.206;2022-11-11T17:17:16;19.40;;;17.90;;
16994;SDS011;8614;48.522;9.206;2022-11-11T17:20:02;19.47;;;17.87;;
16994;SDS011;8614;48.522;9.206;2022-11-11T17:22:52;20.27;;;18.67;;
16994;SDS011;8614;48.522;9.206;2022-11-11T17:25:38;21.00;;;19.13;;
16994;SDS011;8614;48.522;9.206;2022-11-11T17:28:24;21.03;;;19.23;;
16994;SDS011;8614;48.522;9.206;2022-11-11T17:31:10;21.43;;;19.53;;
16994;SDS011;8614;48.522;9.206;2022-11-11T17:33:57;21.43;;;19.63;;
16994;SDS011;8614;48.522;9.206;2022-11-11T17:36:43;20.23;;;18.63;;
16994;SDS011;8614;48.522;9.206;2022-11-11T17:39:30;22.87;;;20.77;;
16994;SDS011;8614;48.522;9.206;2022-11-11T17:42:15;22.60;;;20.57;;
16994;SDS011;8614;48.522;9.206;2022-11-11T17:45:01;23.53;;;21.40;;
16994;SDS011;8614;48.522;9.206;2022-11-11T17:47:46;25.70;;;23.20;;
16994;SDS011;8614;48.522;9.206;2022-11-11T17:50:32;23.30;;;21.30;;
16994;SDS011;8614;48.522;9.206;2022-11-11T17:53:19;23.87;;;21.63;;
16994;SDS011;8614;48.522;9.206;2022-11-11T17:56:06;47.53;;;39.10;;
16994;SDS011;8614;48.522;9.206;2022-11-11T17:58:54;63.47;;;41.93;;
16994;SDS011;8614;48.522;9.206;2022-11-11T18:01:39;43.47;;;33.70;;
16994;SDS011;8614;48.522;9.206;2022-11-11T18:04:27;37.13;;;29.50;;
16994;SDS011;8614;48.522;9.206;2022-11-11T18:07:12;35.67;;;27.60;;
16994;SDS011;8614;48.522;9.206;2022-11-11T18:09:58;28.87;;;25.97;;
16994;SDS011;8614;48.522;9.206;2022-11-11T18:12:46;27.77;;;24.87;;
16994;SDS011;8614;48.522;9.206;2022-11-11T18:15:32;27.30;;;24.50;;
16994;SDS011;8614;48.522;9.206;2022-11-11T18:18:17;27.43;;;24.73;;
16994;SDS011;8614;48.522;9.206;2022-11-11T18:21:03;27.30;;;24.57;;
16994;SDS011;8614;48.522;9.206;2022-11-11T18:23:51;28.03;;;25.17;;
16994;SDS011;8614;48.522;9.206;2022-11-11T18:26:37;28.20;;;25.43;;
16994;SDS011;8614;48.522;9.206;2022-11-11T18:29:23;26.43;;;24.03;;
16994;SDS011;8614;48.522;9.206;2022-11-11T18:32:09;27.33;;;24.63;;
16994;SDS011;8614;48.522;9.206;2022-11-11T18:34:55;28.37;;;25.63;;
16994;SDS011;8614;48.522;9.206;2022-11-11T18:37:40;28.23;;;25.60;;
16994;SDS011;8614;48.522;9.206;2022-11-11T18:40:25;27.23;;;24.83;;
16994;SDS011;8614;48.522;9.206;2022-11-11T18:43:11;27.07;;;24.57;;
16994;SDS011;8614;48.522;9.206;2022-11-11T18:46:02;26.60;;;24.33;;
16994;SDS011;8614;48.522;9.206;2022-11-11T18:48:51;27.37;;;24.80;;
16994;SDS011;8614;48.522;9.206;2022-11-11T18:51:38;27.60;;;24.93;;
16994;SDS011;8614;48.522;9.206;2022-11-11T18:54:24;27.13;;;24.60;;
16994;SDS011;8614;48.522;9.206;2022-11-11T18:57:09;27.40;;;24.90;;
16994;SDS011;8614;48.522;9.206;2022-11-11T18:59:54;24.83;;;22.70;;
16994;SDS011;8614;48.522;9.206;2022-11-11T19:02:41;25.30;;;23.10;;
16994;SDS011;8614;48.522;9.206;2022-11-11T19:05:27;24.97;;;22.70;;
16994;SDS011;8614;48.522;9.206;2022-11-11T19:08:13;25.20;;;23.00;;
16994;SDS011;8614;48.522;9.206;2022-11-11T19:11:00;28.97;;;26.23;;
16994;SDS011;8614;48.522;9.206;2022-11-11T19:13:46;27.63;;;24.83;;
16994;SDS011;8614;48.522;9.206;2022-11-11T19:16:32;27.20;;;24.83;;
16994;SDS011;8614;48.522;9.206;2022-11-11T19:19:19;26.23;;;23.90;;
16994;SDS011;8614;48.522;9.206;2022-11-11T19:22:05;26.90;;;24.60;;
16994;SDS011;8614;48.522;9.206;2022-11-11T19:24:50;24.37;;;22.30;;
16994;SDS011;8614;48.522;9.206;2022-11-11T19:27:36;25.03;;;22.77;;
16994;SDS011;8614;48.522;9.206;2022-11-11T19:30:21;24.80;;;22.63;;
16994;SDS011;8614;48.522;9.206;2022-11-11T19:33:07;22.97;;;21.13;;
16994;SDS011;8614;48.522;9.206;2022-11-11T19:35:57;22.20;;;20.50;;
16994;SDS011;8614;48.522;9.206;2022-11-11T19:38:44;20.97;;;19.33;;
16994;SDS011;8614;48.522;9.206;2022-11-11T19:41:31;20.37;;;18.80;;
16994;SDS011;8614;48.522;9.206;2022-11-11T19:44:17;18.83;;;17.53;;
16994;SDS011;8614;48.522;9.206;2022-11-11T19:47:02;19.20;;;17.80;;
16994;SDS011;8614;48.522;9.206;2022-11-11T19:49:47;19.20;;;17.80;;
16994;SDS011;8614;48.522;9.206;2022-11-11T19:52:34;18.80;;;17.50;;
16994;SDS011;8614;48.522;9.206;2022-11-11T19:55:20;18.57;;;17.27;;
16994;SDS011;8614;48.522;9.206;2022-11-11T19:58:05;18.23;;;17.03;;
16994;SDS011;8614;48.522;9.206;2022-11-11T20:00:51;18.73;;;17.33;;
16994;SDS011;8614;48.522;9.206;2022-11-11T20:03:37;17.70;;;16.40;;
16994;SDS011;8614;48.522;9.206;2022-11-11T20:06:23;18.30;;;17.00;;
16994;SDS011;8614;48.522;9.206;2022-11-11T20:09:11;18.37;;;17.07;;
16994;SDS011;8614;48.522;9.206;2022-11-11T20:11:57;17.97;;;16.67;;
16994;SDS011;8614;48.522;9.206;2022-11-11T20:14:42;18.23;;;17.03;;
16994;SDS011;8614;48.522;9.206;2022-11-11T20:17:28;17.10;;;15.90;;
16994;SDS011;8614;48.522;9.206;2022-11-11T20:20:13;17.33;;;16.13;;